createdAt,value
2023-04-30T00:00:16.832Z,99.99
2023-04-30T00:01:16.831Z,99.99
2023-04-30T00:02:16.892Z,99.99
2023-04-30T00:03:16.891Z,99.99
2023-04-30T00:04:16.807Z,99.99
2023-04-30T00:05:16.780Z,99.99
2023-04-30T00:06:16.835Z,99.99
2023-04-30T00:07:16.953Z,99.99
2023-04-30T00:08:16.735Z,99.99
2023-04-30T00:09:16.751Z,99.99
2023-04-30T00:10:16.709Z,99.99
2023-04-30T00:11:16.738Z,99.99
2023-04-30T00:12:16.748Z,99.99
2023-04-30T00:13:16.688Z,99.99
2023-04-30T00:14:16.674Z,99.99
2023-04-30T00:15:16.668Z,99.99
2023-04-30T00:16:16.709Z,99.99
2023-04-30T00:17:16.694Z,99.99
2023-04-30T00:18:16.635Z,99.99
2023-04-30T00:19:16.615Z,99.99
2023-04-30T00:20:16.613Z,99.99
2023-04-30T00:21:16.591Z,99.99
2023-04-30T00:22:16.620Z,99.99
2023-04-30T00:23:16.568Z,99.99
2023-04-30T00:24:16.552Z,99.99
2023-04-30T00:25:16.610Z,99.99
2023-04-30T00:26:16.546Z,99.99
2023-04-30T00:27:16.573Z,99.99
2023-04-30T00:28:16.515Z,99.99
2023-04-30T00:29:16.510Z,99.99
2023-04-30T00:30:16.493Z,99.99
2023-04-30T00:31:16.494Z,99.99
2023-04-30T00:32:16.571Z,99.99
2023-04-30T00:33:16.479Z,99.99
2023-04-30T00:34:16.442Z,99.99
2023-04-30T00:35:16.459Z,99.99
2023-04-30T00:36:16.417Z,99.99
2023-04-30T00:37:16.448Z,99.99
2023-04-30T00:38:16.397Z,99.99
2023-04-30T00:39:16.410Z,99.99
2023-04-30T00:40:16.373Z,99.99
2023-04-30T00:41:16.378Z,99.99
2023-04-30T00:42:16.419Z,99.99
2023-04-30T00:43:16.349Z,99.99
2023-04-30T00:44:16.360Z,99.99
2023-04-30T00:45:16.324Z,99.99
2023-04-30T00:46:16.320Z,99.99
2023-04-30T00:47:16.354Z,99.99
2023-04-30T00:48:16.296Z,99.99
2023-04-30T00:49:16.274Z,99.99
2023-04-30T00:50:16.390Z,99.99
2023-04-30T00:51:16.268Z,99.99
2023-04-30T00:52:16.296Z,99.99
2023-04-30T00:53:16.261Z,99.99
2023-04-30T00:54:16.220Z,99.99
2023-04-30T00:55:16.213Z,99.99
2023-04-30T00:56:16.191Z,99.99
2023-04-30T00:57:16.236Z,99.99
2023-04-30T00:58:16.171Z,99.99
2023-04-30T00:59:16.150Z,99.99
2023-04-30T01:00:16.176Z,99.99
2023-04-30T01:01:16.156Z,99.99
2023-04-30T01:02:16.188Z,99.99
2023-04-30T01:03:16.341Z,99.99
2023-04-30T01:04:16.099Z,99.99
2023-04-30T01:05:16.108Z,99.99
2023-04-30T01:06:16.118Z,99.99
2023-04-30T01:07:16.107Z,99.99
2023-04-30T01:08:16.071Z,99.99
2023-04-30T01:09:16.065Z,99.99
2023-04-30T01:10:16.057Z,99.99
2023-04-30T01:11:16.016Z,99.99
2023-04-30T01:12:16.099Z,99.99
2023-04-30T01:13:16.000Z,99.99
2023-04-30T01:14:15.991Z,99.99
2023-04-30T01:15:16.000Z,99.99
2023-04-30T01:16:15.986Z,99.99
2023-04-30T01:17:16.059Z,99.99
2023-04-30T01:18:16.102Z,99.99
2023-04-30T01:19:16.005Z,99.99
2023-04-30T01:20:15.945Z,99.99
2023-04-30T01:21:15.919Z,99.99
2023-04-30T01:22:15.944Z,99.99
2023-04-30T01:23:15.883Z,99.99
2023-04-30T01:24:15.886Z,99.99
2023-04-30T01:25:15.864Z,99.99
2023-04-30T01:26:15.852Z,99.99
2023-04-30T01:27:15.868Z,99.99
2023-04-30T01:28:15.850Z,99.99
2023-04-30T01:29:15.829Z,99.99
2023-04-30T01:30:15.820Z,99.99
2023-04-30T01:31:15.795Z,99.99
2023-04-30T01:32:15.838Z,99.99
2023-04-30T01:33:15.782Z,99.99
2023-04-30T01:34:15.766Z,99.99
2023-04-30T01:35:15.752Z,99.99
2023-04-30T01:36:15.753Z,99.99
2023-04-30T01:37:15.729Z,99.99
2023-04-30T01:38:15.756Z,99.99
2023-04-30T01:39:15.710Z,99.99
2023-04-30T01:40:15.707Z,99.99
2023-04-30T01:41:15.685Z,99.99
2023-04-30T01:42:15.676Z,99.99
2023-04-30T01:43:15.717Z,99.99
2023-04-30T01:44:15.668Z,99.99
2023-04-30T01:45:15.658Z,99.99
2023-04-30T01:46:15.683Z,99.99
2023-04-30T01:47:15.648Z,99.99
2023-04-30T01:48:15.633Z,99.99
2023-04-30T01:49:15.604Z,99.99
2023-04-30T01:50:15.596Z,99.99
2023-04-30T01:51:15.589Z,99.99
2023-04-30T01:52:15.619Z,99.99
2023-04-30T01:53:15.606Z,99.99
2023-04-30T01:54:15.542Z,99.99
2023-04-30T01:55:15.528Z,99.99
2023-04-30T01:56:15.516Z,99.99
2023-04-30T01:57:15.552Z,99.99
2023-04-30T01:58:15.560Z,99.99
2023-04-30T01:59:15.492Z,99.99
2023-04-30T02:00:15.495Z,99.99
2023-04-30T02:01:15.524Z,99.99
2023-04-30T02:02:15.493Z,99.99
2023-04-30T02:03:15.515Z,99.99
2023-04-30T02:04:15.430Z,99.99
2023-04-30T02:05:15.436Z,99.99
2023-04-30T02:06:15.459Z,99.99
2023-04-30T02:07:15.451Z,99.99
2023-04-30T02:08:15.408Z,99.99
2023-04-30T02:09:15.384Z,99.99
2023-04-30T02:10:15.394Z,99.99
2023-04-30T02:11:15.364Z,99.99
2023-04-30T02:12:15.358Z,99.99
2023-04-30T02:13:15.366Z,99.99
2023-04-30T02:14:15.352Z,99.99
2023-04-30T02:15:15.353Z,99.99
2023-04-30T02:16:15.364Z,99.99
2023-04-30T02:17:15.322Z,99.99
2023-04-30T02:18:15.303Z,99.99
2023-04-30T02:19:15.518Z,99.99
2023-04-30T02:20:15.269Z,99.99
2023-04-30T02:21:15.261Z,99.99
2023-04-30T02:22:15.309Z,99.99
2023-04-30T02:23:15.214Z,99.99
2023-04-30T02:24:15.198Z,99.99
2023-04-30T02:25:15.199Z,99.99
2023-04-30T02:26:15.175Z,99.99
2023-04-30T02:27:15.176Z,99.99
2023-04-30T02:28:15.199Z,99.99
2023-04-30T02:29:15.167Z,99.99
2023-04-30T02:30:15.127Z,99.99
2023-04-30T02:31:15.164Z,99.99
2023-04-30T02:32:15.105Z,99.99
2023-04-30T02:33:15.144Z,99.99
2023-04-30T02:34:15.084Z,99.99
2023-04-30T02:35:15.084Z,99.99
2023-04-30T02:36:15.088Z,99.99
2023-04-30T02:37:15.063Z,99.99
2023-04-30T02:38:15.093Z,99.99
2023-04-30T02:39:15.044Z,99.99
2023-04-30T02:40:15.050Z,99.99
2023-04-30T02:41:15.028Z,99.99
2023-04-30T02:42:15.034Z,99.99
2023-04-30T02:43:15.037Z,99.99
2023-04-30T02:44:14.984Z,99.99
2023-04-30T02:45:14.971Z,99.99
2023-04-30T02:46:15.016Z,99.99
2023-04-30T02:47:14.941Z,99.99
2023-04-30T02:48:14.970Z,99.99
2023-04-30T02:49:14.923Z,99.99
2023-04-30T02:50:14.919Z,99.99
2023-04-30T02:51:14.922Z,99.99
2023-04-30T02:52:14.901Z,99.99
2023-04-30T02:53:14.922Z,99.99
2023-04-30T02:54:14.880Z,99.99
2023-04-30T02:55:14.851Z,99.99
2023-04-30T02:56:14.860Z,99.99
2023-04-30T02:57:14.830Z,99.99
2023-04-30T02:58:14.857Z,99.99
2023-04-30T02:59:14.808Z,99.99
2023-04-30T03:00:14.830Z,99.99
2023-04-30T03:01:14.842Z,99.99
2023-04-30T03:02:14.828Z,99.99
2023-04-30T03:03:14.890Z,99.99
2023-04-30T03:04:14.788Z,99.99
2023-04-30T03:05:14.737Z,99.99
2023-04-30T03:06:14.792Z,99.99
2023-04-30T03:07:14.717Z,99.99
2023-04-30T03:08:14.736Z,99.99
2023-04-30T03:09:14.691Z,99.99
2023-04-30T03:10:14.706Z,99.99
2023-04-30T03:11:14.684Z,99.99
2023-04-30T03:12:14.671Z,99.99
2023-04-30T03:13:14.697Z,99.99
2023-04-30T03:14:14.649Z,99.99
2023-04-30T03:15:14.637Z,99.99
2023-04-30T03:16:14.687Z,99.99
2023-04-30T03:17:14.613Z,99.99
2023-04-30T03:18:14.695Z,99.99
2023-04-30T03:19:14.585Z,99.99
2023-04-30T03:20:14.587Z,99.99
2023-04-30T03:21:14.565Z,99.99
2023-04-30T03:22:14.581Z,99.99
2023-04-30T03:23:14.569Z,99.99
2023-04-30T03:24:14.516Z,99.99
2023-04-30T03:25:14.507Z,0.00
2023-04-30T03:26:14.507Z,99.99
2023-04-30T03:27:14.487Z,99.99
2023-04-30T03:28:14.517Z,100.00
2023-04-30T03:29:14.487Z,99.99
2023-04-30T03:30:14.461Z,99.99
2023-04-30T03:31:14.496Z,99.99
2023-04-30T03:32:14.458Z,99.99
2023-04-30T03:33:14.515Z,99.99
2023-04-30T03:34:14.431Z,99.99
2023-04-30T03:35:14.399Z,99.99
2023-04-30T03:36:14.401Z,99.99
2023-04-30T03:37:14.378Z,99.99
2023-04-30T03:38:14.536Z,99.99
2023-04-30T03:39:14.360Z,99.99
2023-04-30T03:40:14.419Z,99.99
2023-04-30T03:41:14.339Z,99.99
2023-04-30T03:42:14.329Z,99.99
2023-04-30T03:43:14.368Z,99.99
2023-04-30T03:44:14.312Z,99.99
2023-04-30T03:45:14.309Z,99.99
2023-04-30T03:46:14.313Z,99.99
2023-04-30T03:47:14.278Z,99.99
2023-04-30T03:48:14.310Z,99.99
2023-04-30T03:49:14.252Z,99.99
2023-04-30T03:50:14.243Z,99.99
2023-04-30T03:51:14.244Z,99.99
2023-04-30T03:52:14.219Z,99.99
2023-04-30T03:53:14.221Z,99.99
2023-04-30T03:54:14.191Z,99.99
2023-04-30T03:55:14.186Z,99.99
2023-04-30T03:56:14.166Z,99.99
2023-04-30T03:57:14.176Z,99.99
2023-04-30T03:58:14.186Z,99.99
2023-04-30T03:59:14.139Z,99.99
2023-04-30T04:00:14.136Z,99.99
2023-04-30T04:01:14.125Z,99.99
2023-04-30T04:02:14.150Z,99.99
2023-04-30T04:03:14.150Z,99.99
2023-04-30T04:04:14.120Z,99.99
2023-04-30T04:05:14.068Z,99.99
2023-04-30T04:06:14.087Z,99.99
2023-04-30T04:07:14.056Z,99.99
2023-04-30T04:08:14.072Z,99.99
2023-04-30T04:09:14.057Z,99.99
2023-04-30T04:10:14.027Z,99.99
2023-04-30T04:11:14.009Z,99.99
2023-04-30T04:12:13.990Z,99.99
2023-04-30T04:13:14.029Z,99.99
2023-04-30T04:14:13.967Z,99.99
2023-04-30T04:15:13.955Z,99.99
2023-04-30T04:16:14.005Z,100.00
2023-04-30T04:17:13.932Z,100.00
2023-04-30T04:18:13.989Z,100.00
2023-04-30T04:19:14.267Z,99.99
2023-04-30T04:20:14.265Z,100.00
2023-04-30T04:21:13.896Z,100.00
2023-04-30T04:22:13.896Z,99.99
2023-04-30T04:23:13.888Z,100.00
2023-04-30T04:24:13.898Z,99.99
2023-04-30T04:25:13.846Z,100.00
2023-04-30T04:26:13.841Z,99.99
2023-04-30T04:27:13.823Z,99.99
2023-04-30T04:28:13.804Z,99.99
2023-04-30T04:29:13.854Z,99.99
2023-04-30T04:30:13.830Z,99.99
2023-04-30T04:31:13.801Z,99.99
2023-04-30T04:32:13.776Z,99.99
2023-04-30T04:33:13.757Z,99.99
2023-04-30T04:34:13.785Z,99.99
2023-04-30T04:35:13.781Z,99.99
2023-04-30T04:36:13.743Z,99.99
2023-04-30T04:37:13.720Z,99.99
2023-04-30T04:38:13.708Z,99.99
2023-04-30T04:39:13.728Z,99.99
2023-04-30T04:40:13.686Z,96.80
2023-04-30T04:41:13.664Z,94.54
2023-04-30T04:42:13.664Z,93.40
2023-04-30T04:43:13.645Z,93.30
2023-04-30T04:44:13.680Z,91.97
2023-04-30T04:45:13.613Z,94.59
2023-04-30T04:46:14.449Z,93.07
2023-04-30T04:47:13.591Z,93.02
2023-04-30T04:48:13.594Z,90.32
2023-04-30T04:49:13.618Z,89.66
2023-04-30T04:50:13.578Z,90.03
2023-04-30T04:51:13.554Z,91.73
2023-04-30T04:52:13.544Z,86.20
2023-04-30T04:53:13.528Z,87.18
2023-04-30T04:54:13.555Z,85.30
2023-04-30T04:55:13.506Z,86.83
2023-04-30T04:56:13.514Z,83.62
2023-04-30T04:57:13.497Z,85.42
2023-04-30T04:58:13.474Z,82.36
2023-04-30T04:59:13.487Z,82.42
2023-04-30T05:00:13.450Z,81.87
2023-04-30T05:01:13.467Z,82.69
2023-04-30T05:02:13.411Z,79.22
2023-04-30T05:03:13.508Z,79.22
2023-04-30T05:04:13.432Z,77.72
2023-04-30T05:05:13.410Z,78.41
2023-04-30T05:06:13.429Z,77.51
2023-04-30T05:07:13.374Z,77.89
2023-04-30T05:08:13.381Z,79.54
2023-04-30T05:09:13.440Z,73.43
2023-04-30T05:10:13.345Z,75.16
2023-04-30T05:11:15.541Z,73.71
2023-04-30T05:12:13.309Z,74.76
2023-04-30T05:13:13.329Z,75.81
2023-04-30T05:14:13.335Z,71.26
2023-04-30T05:15:13.329Z,72.41
2023-04-30T05:16:13.322Z,74.21
2023-04-30T05:17:13.270Z,71.33
2023-04-30T05:18:13.253Z,70.48
2023-04-30T05:19:13.285Z,73.33
2023-04-30T05:20:13.246Z,71.09
2023-04-30T05:21:13.212Z,71.87
2023-04-30T05:22:13.206Z,73.06
2023-04-30T05:23:13.200Z,69.15
2023-04-30T05:24:13.233Z,72.75
2023-04-30T05:25:13.161Z,71.33
2023-04-30T05:26:13.141Z,68.88
2023-04-30T05:27:13.147Z,71.94
2023-04-30T05:28:13.132Z,68.11
2023-04-30T05:29:13.166Z,69.94
2023-04-30T05:30:13.121Z,69.33
2023-04-30T05:31:13.137Z,67.97
2023-04-30T05:32:13.156Z,68.38
2023-04-30T05:33:13.145Z,66.66
2023-04-30T05:34:13.102Z,69.13
2023-04-30T05:35:13.069Z,67.40
2023-04-30T05:36:13.054Z,69.37
2023-04-30T05:37:13.079Z,64.52
2023-04-30T05:38:13.043Z,66.96
2023-04-30T05:39:13.048Z,66.52
2023-04-30T05:40:13.019Z,65.61
2023-04-30T05:41:13.148Z,65.99
2023-04-30T05:42:13.043Z,65.00
2023-04-30T05:43:12.960Z,65.94
2023-04-30T05:44:12.993Z,68.08
2023-04-30T05:45:12.936Z,67.44
2023-04-30T05:46:12.975Z,64.26
2023-04-30T05:47:12.934Z,67.88
2023-04-30T05:48:12.991Z,64.67
2023-04-30T05:49:12.946Z,67.88
2023-04-30T05:50:12.891Z,64.10
2023-04-30T05:51:12.899Z,62.24
2023-04-30T05:52:12.849Z,65.68
2023-04-30T05:53:12.858Z,63.55
2023-04-30T05:54:12.924Z,65.21
2023-04-30T05:55:12.851Z,65.99
2023-04-30T05:56:12.814Z,65.15
2023-04-30T05:57:12.798Z,61.97
2023-04-30T05:58:12.802Z,62.76
2023-04-30T05:59:12.819Z,64.45
2023-04-30T06:00:12.797Z,65.28
2023-04-30T06:01:12.793Z,70.48
2023-04-30T06:02:12.790Z,68.38
2023-04-30T06:03:12.791Z,66.82
2023-04-30T06:04:12.766Z,66.89
2023-04-30T06:05:15.329Z,67.94
2023-04-30T06:06:12.831Z,65.92
2023-04-30T06:07:12.719Z,62.78
2023-04-30T06:08:12.686Z,63.42
2023-04-30T06:09:12.730Z,63.75
2023-04-30T06:10:12.807Z,63.40
2023-04-30T06:11:12.678Z,65.55
2023-04-30T06:12:12.655Z,65.27
2023-04-30T06:13:12.661Z,63.24
2023-04-30T06:14:12.673Z,64.53
2023-04-30T06:15:12.628Z,63.02
2023-04-30T06:16:12.630Z,65.91
2023-04-30T06:17:12.606Z,65.16
2023-04-30T06:18:12.613Z,66.47
2023-04-30T06:19:12.596Z,66.85
2023-04-30T06:20:12.539Z,66.31
2023-04-30T06:21:12.530Z,65.36
2023-04-30T06:22:12.573Z,66.86
2023-04-30T06:23:12.524Z,64.79
2023-04-30T06:24:12.570Z,63.28
2023-04-30T06:25:12.489Z,62.93
2023-04-30T06:26:12.497Z,67.39
2023-04-30T06:27:12.482Z,67.02
2023-04-30T06:28:12.479Z,66.18
2023-04-30T06:29:12.459Z,66.22
2023-04-30T06:30:12.472Z,63.24
2023-04-30T06:31:12.452Z,63.74
2023-04-30T06:32:12.454Z,66.69
2023-04-30T06:33:12.416Z,65.16
2023-04-30T06:34:12.376Z,65.10
2023-04-30T06:35:12.436Z,63.04
2023-04-30T06:36:12.357Z,63.81
2023-04-30T06:37:12.368Z,64.26
2023-04-30T06:38:12.350Z,64.43
2023-04-30T06:39:12.360Z,62.17
2023-04-30T06:40:12.376Z,63.83
2023-04-30T06:41:12.308Z,62.05
2023-04-30T06:42:12.300Z,62.02
2023-04-30T06:43:12.303Z,62.77
2023-04-30T06:44:12.290Z,61.46
2023-04-30T06:45:12.348Z,60.19
2023-04-30T06:46:12.288Z,60.74
2023-04-30T06:47:12.257Z,63.33
2023-04-30T06:48:12.239Z,57.35
2023-04-30T06:49:12.238Z,54.43
2023-04-30T06:50:12.264Z,58.71
2023-04-30T06:51:12.201Z,66.35
2023-04-30T06:52:12.267Z,62.04
2023-04-30T06:53:12.171Z,61.82
2023-04-30T06:54:12.166Z,57.86
2023-04-30T06:55:12.229Z,55.39
2023-04-30T06:56:12.155Z,57.76
2023-04-30T06:57:12.139Z,55.97
2023-04-30T06:58:12.133Z,55.99
2023-04-30T06:59:12.125Z,60.33
2023-04-30T07:00:12.148Z,58.85
2023-04-30T07:01:12.105Z,61.35
2023-04-30T07:02:12.168Z,60.16
2023-04-30T07:03:12.158Z,57.78
2023-04-30T07:04:12.064Z,61.49
2023-04-30T07:05:12.100Z,58.21
2023-04-30T07:06:12.087Z,58.03
2023-04-30T07:07:12.036Z,58.89
2023-04-30T07:08:12.065Z,60.55
2023-04-30T07:09:12.034Z,60.60
2023-04-30T07:10:12.014Z,58.48
2023-04-30T07:11:11.972Z,56.38
2023-04-30T07:12:11.999Z,56.51
2023-04-30T07:13:11.946Z,55.93
2023-04-30T07:14:11.944Z,55.83
2023-04-30T07:15:11.986Z,54.13
2023-04-30T07:16:12.008Z,55.13
2023-04-30T07:17:11.912Z,53.39
2023-04-30T07:18:11.912Z,53.77
2023-04-30T07:19:11.898Z,56.99
2023-04-30T07:20:11.895Z,52.80
2023-04-30T07:21:11.882Z,54.05
2023-04-30T07:22:11.860Z,58.30
2023-04-30T07:23:11.872Z,60.55
2023-04-30T07:24:11.842Z,65.11
2023-04-30T07:25:11.816Z,58.74
2023-04-30T07:26:11.836Z,54.00
2023-04-30T07:27:11.836Z,56.02
2023-04-30T07:28:11.785Z,51.26
2023-04-30T07:29:11.791Z,52.51
2023-04-30T07:30:11.784Z,59.65
2023-04-30T07:31:11.815Z,60.19
2023-04-30T07:32:11.752Z,65.00
2023-04-30T07:33:11.740Z,57.67
2023-04-30T07:34:11.705Z,59.34
2023-04-30T07:35:11.708Z,60.87
2023-04-30T07:36:11.737Z,56.40
2023-04-30T07:37:11.711Z,56.02
2023-04-30T07:38:11.666Z,59.17
2023-04-30T07:39:11.767Z,62.59
2023-04-30T07:40:13.267Z,64.93
2023-04-30T07:41:11.663Z,63.02
2023-04-30T07:42:11.645Z,61.72
2023-04-30T07:43:11.604Z,55.31
2023-04-30T07:44:11.614Z,55.34
2023-04-30T07:45:11.566Z,54.61
2023-04-30T07:46:11.639Z,57.85
2023-04-30T07:47:11.575Z,55.38
2023-04-30T07:48:11.552Z,53.65
2023-04-30T07:49:11.536Z,53.07
2023-04-30T07:50:11.548Z,54.48
2023-04-30T07:51:11.540Z,54.46
2023-04-30T07:52:11.519Z,56.95
2023-04-30T07:53:11.492Z,52.72
2023-04-30T07:54:11.509Z,52.69
2023-04-30T07:55:11.501Z,55.44
2023-04-30T07:56:11.504Z,55.92
2023-04-30T07:57:11.450Z,54.76
2023-04-30T07:58:11.480Z,55.84
2023-04-30T07:59:11.426Z,54.43
2023-04-30T08:00:11.444Z,53.63
2023-04-30T08:01:11.458Z,55.39
2023-04-30T08:02:11.429Z,56.84
2023-04-30T08:03:11.474Z,56.98
2023-04-30T08:04:11.400Z,56.02
2023-04-30T08:05:11.373Z,56.15
2023-04-30T08:06:11.424Z,55.71
2023-04-30T08:07:11.356Z,52.06
2023-04-30T08:08:11.346Z,51.84
2023-04-30T08:09:11.335Z,54.33
2023-04-30T08:10:11.337Z,53.07
2023-04-30T08:11:11.344Z,52.62
2023-04-30T08:12:11.299Z,54.35
2023-04-30T08:13:11.304Z,54.40
2023-04-30T08:14:11.276Z,53.62
2023-04-30T08:15:11.252Z,52.32
2023-04-30T08:16:11.358Z,48.99
2023-04-30T08:17:11.205Z,48.21
2023-04-30T08:18:11.241Z,49.51
2023-04-30T08:19:11.229Z,52.14
2023-04-30T08:20:11.204Z,52.54
2023-04-30T08:21:11.207Z,54.25
2023-04-30T08:22:11.169Z,58.76
2023-04-30T08:23:11.168Z,58.71
2023-04-30T08:24:11.171Z,59.21
2023-04-30T08:25:11.157Z,56.70
2023-04-30T08:26:11.156Z,57.48
2023-04-30T08:27:11.118Z,55.54
2023-04-30T08:28:11.163Z,56.10
2023-04-30T08:29:11.094Z,53.67
2023-04-30T08:30:11.091Z,55.06
2023-04-30T08:31:11.144Z,55.13
2023-04-30T08:32:11.127Z,51.04
2023-04-30T08:33:11.112Z,49.01
2023-04-30T08:34:11.067Z,51.09
2023-04-30T08:35:11.037Z,52.06
2023-04-30T08:36:11.065Z,55.84
2023-04-30T08:37:11.006Z,58.12
2023-04-30T08:38:11.006Z,57.26
2023-04-30T08:39:10.997Z,55.36
2023-04-30T08:40:11.004Z,54.66
2023-04-30T08:41:11.025Z,55.51
2023-04-30T08:42:10.967Z,57.37
2023-04-30T08:43:10.946Z,58.68
2023-04-30T08:44:10.920Z,55.39
2023-04-30T08:45:10.900Z,54.79
2023-04-30T08:46:10.963Z,58.50
2023-04-30T08:47:10.898Z,55.49
2023-04-30T08:48:10.874Z,52.56
2023-04-30T08:49:10.874Z,59.60
2023-04-30T08:50:10.871Z,53.75
2023-04-30T08:51:10.894Z,53.58
2023-04-30T08:52:10.848Z,52.51
2023-04-30T08:53:10.808Z,51.99
2023-04-30T08:54:10.805Z,53.00
2023-04-30T08:55:10.806Z,50.56
2023-04-30T08:56:10.823Z,50.54
2023-04-30T08:57:10.766Z,50.61
2023-04-30T08:58:10.764Z,50.51
2023-04-30T08:59:10.754Z,52.39
2023-04-30T09:00:10.749Z,52.92
2023-04-30T09:01:10.835Z,50.29
2023-04-30T09:02:10.879Z,48.57
2023-04-30T09:03:10.784Z,50.98
2023-04-30T09:04:10.824Z,53.42
2023-04-30T09:05:10.689Z,55.24
2023-04-30T09:06:10.690Z,52.74
2023-04-30T09:07:10.694Z,50.35
2023-04-30T09:08:10.696Z,54.35
2023-04-30T09:09:10.624Z,53.09
2023-04-30T09:10:10.641Z,46.96
2023-04-30T09:11:10.632Z,49.05
2023-04-30T09:12:10.642Z,52.44
2023-04-30T09:13:10.585Z,49.14
2023-04-30T09:14:10.594Z,49.51
2023-04-30T09:15:10.560Z,48.58
2023-04-30T09:16:10.564Z,49.36
2023-04-30T09:17:10.585Z,51.64
2023-04-30T09:18:10.568Z,48.53
2023-04-30T09:19:10.514Z,46.20
2023-04-30T09:20:10.528Z,47.77
2023-04-30T09:21:10.499Z,54.56
2023-04-30T09:22:10.545Z,55.39
2023-04-30T09:23:10.485Z,49.41
2023-04-30T09:24:10.539Z,53.50
2023-04-30T09:25:10.473Z,59.43
2023-04-30T09:26:10.480Z,58.76
2023-04-30T09:27:10.479Z,53.60
2023-04-30T09:28:10.514Z,51.83
2023-04-30T09:29:10.442Z,54.49
2023-04-30T09:30:10.400Z,54.89
2023-04-30T09:31:10.388Z,54.00
2023-04-30T09:32:10.456Z,51.54
2023-04-30T09:33:12.215Z,50.45
2023-04-30T09:34:10.385Z,53.14
2023-04-30T09:35:10.363Z,52.03
2023-04-30T09:36:10.368Z,57.95
2023-04-30T09:37:10.363Z,59.19
2023-04-30T09:38:10.315Z,59.38
2023-04-30T09:39:12.055Z,57.44
2023-04-30T09:40:10.286Z,55.72
2023-04-30T09:41:10.276Z,51.46
2023-04-30T09:42:10.361Z,48.90
2023-04-30T09:43:10.236Z,44.83
2023-04-30T09:44:10.260Z,48.50
2023-04-30T09:45:10.224Z,48.48
2023-04-30T09:46:10.284Z,47.96
2023-04-30T09:47:10.273Z,48.30
2023-04-30T09:48:17.105Z,50.11
2023-04-30T09:49:11.202Z,46.86
2023-04-30T09:50:10.188Z,49.68
2023-04-30T09:51:10.164Z,50.01
2023-04-30T09:52:10.191Z,47.77
2023-04-30T09:53:10.162Z,46.15
2023-04-30T09:54:10.150Z,45.22
2023-04-30T09:55:10.147Z,45.83
2023-04-30T09:56:10.108Z,46.15
2023-04-30T09:57:10.122Z,48.13
2023-04-30T09:58:10.108Z,48.10
2023-04-30T09:59:10.080Z,48.44
2023-04-30T10:00:10.050Z,52.11
2023-04-30T10:01:10.111Z,50.96
2023-04-30T10:02:10.072Z,51.43
2023-04-30T10:03:10.064Z,50.26
2023-04-30T10:04:10.058Z,47.39
2023-04-30T10:05:09.989Z,46.31
2023-04-30T10:06:10.035Z,48.98
2023-04-30T10:07:10.032Z,48.46
2023-04-30T10:08:09.981Z,43.98
2023-04-30T10:09:09.966Z,48.48
2023-04-30T10:10:10.031Z,44.32
2023-04-30T10:11:09.938Z,46.69
2023-04-30T10:12:09.972Z,46.67
2023-04-30T10:13:09.964Z,47.23
2023-04-30T10:14:09.920Z,47.13
2023-04-30T10:15:09.895Z,48.53
2023-04-30T10:16:09.902Z,44.74
2023-04-30T10:17:09.921Z,47.67
2023-04-30T10:18:09.900Z,48.03
2023-04-30T10:19:09.871Z,46.61
2023-04-30T10:20:09.851Z,50.07
2023-04-30T10:21:09.848Z,46.39
2023-04-30T10:22:09.871Z,43.91
2023-04-30T10:23:09.812Z,46.61
2023-04-30T10:24:09.823Z,44.96
2023-04-30T10:25:09.794Z,47.09
2023-04-30T10:26:09.792Z,48.38
2023-04-30T10:27:09.843Z,47.09
2023-04-30T10:28:09.789Z,49.81
2023-04-30T10:29:09.741Z,44.10
2023-04-30T10:30:09.755Z,44.28
2023-04-30T10:31:09.738Z,42.85
2023-04-30T10:32:09.831Z,44.26
2023-04-30T10:33:09.803Z,47.41
2023-04-30T10:34:09.692Z,44.28
2023-04-30T10:35:09.700Z,44.99
2023-04-30T10:36:09.672Z,47.88
2023-04-30T10:37:09.658Z,45.32
2023-04-30T10:38:09.682Z,45.40
2023-04-30T10:39:09.622Z,47.07
2023-04-30T10:40:09.637Z,46.83
2023-04-30T10:41:09.684Z,43.84
2023-04-30T10:42:09.603Z,42.88
2023-04-30T10:43:09.635Z,42.33
2023-04-30T10:44:09.597Z,45.12
2023-04-30T10:45:09.572Z,41.91
2023-04-30T10:46:09.583Z,39.45
2023-04-30T10:47:09.538Z,46.24
2023-04-30T10:48:09.605Z,45.00
2023-04-30T10:49:09.526Z,43.79
2023-04-30T10:50:09.515Z,40.91
2023-04-30T10:51:09.512Z,41.33
2023-04-30T10:52:09.515Z,45.41
2023-04-30T10:53:09.536Z,46.09
2023-04-30T10:54:09.465Z,48.46
2023-04-30T10:55:09.474Z,45.36
2023-04-30T10:56:09.862Z,43.18
2023-04-30T10:57:09.453Z,41.85
2023-04-30T10:58:09.473Z,43.02
2023-04-30T10:59:09.468Z,45.15
2023-04-30T11:00:09.419Z,43.84
2023-04-30T11:01:09.441Z,49.01
2023-04-30T11:02:09.396Z,44.81
2023-04-30T11:03:09.466Z,46.88
2023-04-30T11:04:09.385Z,48.57
2023-04-30T11:05:09.384Z,48.74
2023-04-30T11:06:09.410Z,51.11
2023-04-30T11:07:09.314Z,48.72
2023-04-30T11:08:09.358Z,47.34
2023-04-30T11:09:09.330Z,46.61
2023-04-30T11:10:09.317Z,47.26
2023-04-30T11:11:09.306Z,44.87
2023-04-30T11:12:09.275Z,41.93
2023-04-30T11:13:09.305Z,40.73
2023-04-30T11:14:09.235Z,44.95
2023-04-30T11:15:09.268Z,45.62
2023-04-30T11:16:09.344Z,45.49
2023-04-30T11:17:09.228Z,43.28
2023-04-30T11:18:09.351Z,48.25
2023-04-30T11:19:11.294Z,42.82
2023-04-30T11:20:09.196Z,44.72
2023-04-30T11:21:09.166Z,41.53
2023-04-30T11:22:09.182Z,46.55
2023-04-30T11:23:09.209Z,43.40
2023-04-30T11:24:09.160Z,44.98
2023-04-30T11:25:09.130Z,41.79
2023-04-30T11:26:09.151Z,40.07
2023-04-30T11:27:09.109Z,43.98
2023-04-30T11:28:09.164Z,38.60
2023-04-30T11:29:09.163Z,42.38
2023-04-30T11:30:09.110Z,44.13
2023-04-30T11:31:09.194Z,45.85
2023-04-30T11:32:09.081Z,48.79
2023-04-30T11:33:09.295Z,45.92
2023-04-30T11:34:09.054Z,45.29
2023-04-30T11:35:09.032Z,43.64
2023-04-30T11:36:09.003Z,45.59
2023-04-30T11:37:09.011Z,41.41
2023-04-30T11:38:09.166Z,45.08
2023-04-30T11:39:09.003Z,45.02
2023-04-30T11:40:09.002Z,44.10
2023-04-30T11:41:08.954Z,44.82
2023-04-30T11:42:08.965Z,43.24
2023-04-30T11:43:09.005Z,44.59
2023-04-30T11:44:08.947Z,48.96
2023-04-30T11:45:08.959Z,47.55
2023-04-30T11:46:08.986Z,46.40
2023-04-30T11:47:09.027Z,44.85
2023-04-30T11:48:08.989Z,42.78
2023-04-30T11:49:08.940Z,40.83
2023-04-30T11:50:08.944Z,38.89
2023-04-30T11:51:08.870Z,39.75
2023-04-30T11:52:08.863Z,40.55
2023-04-30T11:53:08.864Z,37.25
2023-04-30T11:54:08.820Z,39.45
2023-04-30T11:55:08.843Z,43.30
2023-04-30T11:56:08.814Z,42.27
2023-04-30T11:57:08.821Z,37.92
2023-04-30T11:58:08.829Z,39.76
2023-04-30T11:59:08.794Z,42.05
2023-04-30T12:00:08.919Z,44.68
2023-04-30T12:01:08.775Z,40.95
2023-04-30T12:02:09.651Z,45.75
2023-04-30T12:03:08.889Z,44.68
2023-04-30T12:04:08.810Z,43.14
2023-04-30T12:05:08.708Z,44.06
2023-04-30T12:06:08.716Z,40.05
2023-04-30T12:07:08.686Z,41.13
2023-04-30T12:08:08.725Z,42.90
2023-04-30T12:09:08.771Z,41.67
2023-04-30T12:10:08.671Z,41.05
2023-04-30T12:11:08.652Z,40.47
2023-04-30T12:12:08.648Z,37.76
2023-04-30T12:13:08.676Z,37.44
2023-04-30T12:14:08.603Z,36.47
2023-04-30T12:15:08.625Z,35.64
2023-04-30T12:16:08.636Z,42.21
2023-04-30T12:17:08.590Z,35.85
2023-04-30T12:18:08.650Z,36.43
2023-04-30T12:19:08.576Z,38.07
2023-04-30T12:20:08.619Z,37.74
2023-04-30T12:21:08.528Z,39.58
2023-04-30T12:22:08.528Z,38.62
2023-04-30T12:23:08.559Z,39.62
2023-04-30T12:24:08.514Z,40.33
2023-04-30T12:25:08.545Z,43.56
2023-04-30T12:26:08.496Z,40.67
2023-04-30T12:27:08.470Z,40.61
2023-04-30T12:28:08.502Z,40.57
2023-04-30T12:29:08.457Z,41.35
2023-04-30T12:30:08.480Z,39.07
2023-04-30T12:31:08.421Z,39.01
2023-04-30T12:32:08.474Z,39.23
2023-04-30T12:33:08.466Z,38.70
2023-04-30T12:34:08.391Z,39.27
2023-04-30T12:35:08.398Z,39.25
2023-04-30T12:36:08.368Z,35.23
2023-04-30T12:37:08.395Z,39.45
2023-04-30T12:38:08.445Z,40.49
2023-04-30T12:39:08.346Z,36.44
2023-04-30T12:40:08.328Z,35.76
2023-04-30T12:41:08.315Z,39.03
2023-04-30T12:42:08.312Z,36.31
2023-04-30T12:43:08.306Z,35.19
2023-04-30T12:44:08.338Z,33.84
2023-04-30T12:45:08.287Z,35.68
2023-04-30T12:46:08.298Z,39.85
2023-04-30T12:47:08.262Z,40.19
2023-04-30T12:48:08.280Z,39.34
2023-04-30T12:49:08.270Z,40.81
2023-04-30T12:50:08.238Z,38.56
2023-04-30T12:51:08.201Z,35.47
2023-04-30T12:52:08.213Z,34.68